createdAt,value
2022-07-30T00:00:40.025Z,24.90
2022-07-30T00:03:08.344Z,25.50
2022-07-30T00:05:36.657Z,23.83
2022-07-30T00:08:05.372Z,22.88
2022-07-30T00:10:33.666Z,29.30
2022-07-30T00:13:03.743Z,27.02
2022-07-30T00:15:33.449Z,38.50
2022-07-30T00:18:01.809Z,35.55
2022-07-30T00:20:30.269Z,34.13
2022-07-30T00:23:07.813Z,32.58
2022-07-30T00:25:38.713Z,34.35
2022-07-30T00:28:07.107Z,43.67
2022-07-30T00:30:37.490Z,39.88
2022-07-30T00:33:05.742Z,44.25
2022-07-30T00:35:36.585Z,43.47
2022-07-30T00:38:04.826Z,40.78
2022-07-30T00:40:33.306Z,53.40
2022-07-30T00:43:01.693Z,49.75
2022-07-30T00:45:30.096Z,51.05
2022-07-30T00:48:01.588Z,52.70
2022-07-30T00:50:29.800Z,59.50
2022-07-30T00:52:58.394Z,54.30
2022-07-30T00:55:26.645Z,56.03
2022-07-30T00:57:57.552Z,55.15
2022-07-30T01:00:26.159Z,61.45
2022-07-30T01:02:54.758Z,60.03
2022-07-30T01:05:25.108Z,56.13
2022-07-30T01:07:53.321Z,59.50
2022-07-30T01:10:21.620Z,65.20
2022-07-30T01:12:52.724Z,58.70
2022-07-30T01:15:21.283Z,54.95
2022-07-30T01:17:53.186Z,59.95
2022-07-30T01:20:26.993Z,58.30
2022-07-30T01:23:03.559Z,53.33
2022-07-30T01:25:57.472Z,49.40
2022-07-30T01:28:29.865Z,50.00
2022-07-30T01:31:00.098Z,41.95
2022-07-30T01:33:30.466Z,51.80
2022-07-30T01:36:00.951Z,51.47
2022-07-30T01:38:34.941Z,43.75
2022-07-30T01:41:06.581Z,47.88
2022-07-30T01:43:38.150Z,51.55
2022-07-30T01:46:08.002Z,49.05
2022-07-30T01:48:38.757Z,50.30
2022-07-30T01:51:08.064Z,46.15
2022-07-30T01:53:39.651Z,49.00
2022-07-30T01:56:11.420Z,47.35
2022-07-30T01:58:42.657Z,54.75
2022-07-30T02:01:11.143Z,47.55
2022-07-30T02:03:39.710Z,59.33
2022-07-30T02:06:12.768Z,49.85
2022-07-30T02:08:45.407Z,59.33
2022-07-30T02:11:38.096Z,60.80
2022-07-30T02:14:12.562Z,55.38
2022-07-30T02:16:44.708Z,52.50
2022-07-30T02:19:15.611Z,55.10
2022-07-30T02:21:50.324Z,52.95
2022-07-30T02:24:23.377Z,52.03
2022-07-30T02:26:57.048Z,58.92
2022-07-30T02:29:26.325Z,52.40
2022-07-30T02:31:59.026Z,47.92
2022-07-30T02:34:29.908Z,47.72
2022-07-30T02:36:59.855Z,58.70
2022-07-30T02:39:30.238Z,53.22
2022-07-30T02:42:00.711Z,53.33
2022-07-30T02:44:30.898Z,49.20
2022-07-30T02:47:04.721Z,54.35
2022-07-30T02:49:36.765Z,46.17
2022-07-30T02:52:09.058Z,48.85
2022-07-30T02:54:40.556Z,51.63
2022-07-30T02:57:10.848Z,54.80
2022-07-30T02:59:42.368Z,55.13
2022-07-30T03:02:12.513Z,55.85
2022-07-30T03:04:45.578Z,58.50
2022-07-30T03:07:18.704Z,57.10
2022-07-30T03:09:51.445Z,55.38
2022-07-30T03:12:24.370Z,54.92
2022-07-30T03:14:53.117Z,59.30
2022-07-30T03:17:23.543Z,59.45
2022-07-30T03:19:53.502Z,57.88
2022-07-30T03:22:23.639Z,59.58
2022-07-30T03:24:54.367Z,59.45
2022-07-30T03:27:25.160Z,58.47
2022-07-30T03:29:55.451Z,59.05
2022-07-30T03:32:26.166Z,59.42
2022-07-30T03:35:01.969Z,63.55
2022-07-30T03:37:36.917Z,62.03
2022-07-30T03:40:06.686Z,66.20
2022-07-30T03:42:38.981Z,69.95
2022-07-30T03:45:09.550Z,72.68
2022-07-30T03:47:40.390Z,70.28
2022-07-30T03:50:09.495Z,78.80
2022-07-30T03:52:40.745Z,78.80
2022-07-30T03:55:11.725Z,75.70
2022-07-30T03:57:43.566Z,78.80
2022-07-30T04:00:15.510Z,76.60
2022-07-30T04:02:44.318Z,72.32
2022-07-30T04:05:13.264Z,71.40
2022-07-30T04:07:45.477Z,64.75
2022-07-30T04:10:14.716Z,68.55
2022-07-30T04:12:44.797Z,70.40
2022-07-30T04:16:37.886Z,69.63
2022-07-30T04:18:05.228Z,68.55
2022-07-30T04:20:40.913Z,57.50
2022-07-30T04:23:10.856Z,61.60
2022-07-30T04:25:39.997Z,67.63
2022-07-30T04:28:11.968Z,58.55
2022-07-30T04:30:40.376Z,52.17
2022-07-30T04:33:09.416Z,60.85
2022-07-30T04:35:51.158Z,60.55
2022-07-30T04:38:20.436Z,64.05
2022-07-30T04:40:50.241Z,61.53
2022-07-30T04:43:19.854Z,55.30
2022-07-30T04:45:48.092Z,61.90
2022-07-30T04:48:16.265Z,44.13
2022-07-30T04:50:48.025Z,50.28
2022-07-30T04:53:19.637Z,53.00
2022-07-30T04:55:49.906Z,59.45
2022-07-30T04:58:21.947Z,55.13
2022-07-30T05:00:52.256Z,55.30
2022-07-30T05:03:22.549Z,54.22
2022-07-30T05:05:57.169Z,55.08
2022-07-30T05:08:26.713Z,58.03
2022-07-30T05:10:56.740Z,56.65
2022-07-30T05:13:34.603Z,61.60
2022-07-30T05:16:07.068Z,51.05
2022-07-30T05:18:35.351Z,43.13
2022-07-30T05:21:03.546Z,45.13
2022-07-30T05:23:31.828Z,44.70
2022-07-30T05:26:03.187Z,45.17
2022-07-30T05:28:32.851Z,50.72
2022-07-30T05:31:01.065Z,46.67
2022-07-30T05:33:40.910Z,44.85
2022-07-30T05:36:10.993Z,33.85
2022-07-30T05:38:39.297Z,37.47
2022-07-30T05:41:30.593Z,43.80
2022-07-30T05:43:57.380Z,38.85
2022-07-30T05:46:25.904Z,34.42
2022-07-30T05:48:54.225Z,36.05
2022-07-30T05:51:22.607Z,41.30
2022-07-30T05:53:51.369Z,37.63
2022-07-30T05:56:19.567Z,35.13
2022-07-30T05:58:49.275Z,26.73
2022-07-30T06:01:19.090Z,28.08
2022-07-30T06:03:50.609Z,23.60
2022-07-30T06:06:22.886Z,19.38
2022-07-30T06:08:51.875Z,17.27
2022-07-30T06:11:20.359Z,15.27
2022-07-30T06:13:49.454Z,12.88
2022-07-30T06:16:19.135Z,12.27
2022-07-30T06:18:47.576Z,8.35
2022-07-30T06:21:15.758Z,8.40
2022-07-30T06:23:43.937Z,5.57
2022-07-30T06:26:12.308Z,5.35
2022-07-30T06:28:40.564Z,5.43
2022-07-30T06:31:09.196Z,5.60
2022-07-30T06:33:38.836Z,4.55
2022-07-30T06:36:07.655Z,8.48
2022-07-30T06:38:35.878Z,5.22
2022-07-30T06:41:04.565Z,3.55
2022-07-30T06:43:33.037Z,6.78
2022-07-30T06:46:01.556Z,4.85
2022-07-30T06:48:32.111Z,4.30
2022-07-30T06:51:01.725Z,4.22
2022-07-30T06:53:30.030Z,3.28
2022-07-30T06:56:00.413Z,4.03
2022-07-30T06:58:29.659Z,3.60
2022-07-30T07:00:57.908Z,3.90
2022-07-30T07:03:40.309Z,2.05
2022-07-30T07:06:10.578Z,3.58
2022-07-30T07:08:39.278Z,5.25
2022-07-30T07:11:07.726Z,2.67
2022-07-30T07:13:35.915Z,2.97
2022-07-30T07:16:04.274Z,4.22
2022-07-30T07:18:32.559Z,2.03
2022-07-30T07:21:00.877Z,5.97
2022-07-30T07:23:41.397Z,3.20
2022-07-30T07:26:11.995Z,5.47
2022-07-30T07:28:41.188Z,3.70
2022-07-30T07:31:09.686Z,3.58
2022-07-30T07:33:38.567Z,6.75
2022-07-30T07:36:07.330Z,4.10
2022-07-30T07:38:37.857Z,3.53
2022-07-30T07:41:06.496Z,8.57
2022-07-30T07:43:34.768Z,4.15
2022-07-30T07:46:03.029Z,3.90
2022-07-30T07:48:31.458Z,3.08
2022-07-30T07:51:00.755Z,3.63
2022-07-30T07:53:29.292Z,3.70
2022-07-30T07:55:59.773Z,1.67
2022-07-30T07:58:29.468Z,2.28
2022-07-30T08:00:59.343Z,2.33
2022-07-30T08:03:27.580Z,3.03
2022-07-30T08:06:02.818Z,1.60
2022-07-30T08:08:36.618Z,4.72
2022-07-30T08:11:07.528Z,3.47
2022-07-30T08:13:50.307Z,1.65
2022-07-30T08:16:20.788Z,3.92
2022-07-30T08:18:49.157Z,1.75
2022-07-30T08:21:17.383Z,1.85
2022-07-30T08:23:45.557Z,1.10
2022-07-30T08:26:15.214Z,3.65
2022-07-30T08:28:45.600Z,1.33
2022-07-30T08:31:13.969Z,1.52
2022-07-30T08:33:42.241Z,1.63
2022-07-30T08:36:10.550Z,1.55
2022-07-30T08:38:39.969Z,3.08
2022-07-30T08:41:08.520Z,3.13
2022-07-30T08:43:40.565Z,1.63
2022-07-30T08:46:12.303Z,1.02
2022-07-30T08:48:42.108Z,1.67
2022-07-30T08:51:10.709Z,2.63
2022-07-30T08:53:39.268Z,2.78
2022-07-30T08:56:08.602Z,1.33
2022-07-30T08:58:38.296Z,2.08
2022-07-30T09:01:07.357Z,4.75
2022-07-30T09:03:44.163Z,2.30
2022-07-30T09:06:12.852Z,4.25
2022-07-30T09:08:41.852Z,2.28
2022-07-30T09:11:10.058Z,2.13
2022-07-30T09:13:42.758Z,4.18
2022-07-30T09:16:21.335Z,2.22
2022-07-30T09:18:50.346Z,2.25
2022-07-30T09:21:20.859Z,1.17
2022-07-30T09:23:59.859Z,2.45
2022-07-30T09:26:30.316Z,1.90
2022-07-30T09:32:00.126Z,2.55
2022-07-30T09:34:29.935Z,1.67
2022-07-30T09:37:00.250Z,1.65
2022-07-30T09:39:33.008Z,4.32
2022-07-30T09:42:01.690Z,14.27
2022-07-30T09:44:31.512Z,1.30
2022-07-30T09:47:02.894Z,2.75
2022-07-30T09:49:32.900Z,1.63
2022-07-30T09:52:01.497Z,2.92
2022-07-30T09:54:51.117Z,2.60
2022-07-30T09:57:25.894Z,3.30
2022-07-30T09:59:57.693Z,1.02
2022-07-30T10:02:33.661Z,2.13
2022-07-30T10:05:14.545Z,2.70
2022-07-30T10:07:51.342Z,1.05
2022-07-30T10:10:25.204Z,3.20
2022-07-30T10:12:57.846Z,2.58
2022-07-30T10:15:29.059Z,1.70
2022-07-30T10:18:00.593Z,1.77
2022-07-30T10:20:29.234Z,1.23
2022-07-30T10:22:58.270Z,1.20
2022-07-30T10:25:28.390Z,1.77
2022-07-30T10:27:58.229Z,1.92
2022-07-30T10:30:29.219Z,8.18
2022-07-30T10:33:00.360Z,1.23
2022-07-30T10:35:34.839Z,1.38
2022-07-30T10:38:13.661Z,2.53
2022-07-30T10:40:49.376Z,0.98
2022-07-30T10:43:48.455Z,1.58
2022-07-30T10:46:28.081Z,1.38
2022-07-30T10:49:11.705Z,1.88
2022-07-30T10:51:49.499Z,3.08
2022-07-30T10:54:39.550Z,1.42
2022-07-30T10:57:11.549Z,2.92
2022-07-30T11:00:15.562Z,1.10
2022-07-30T11:03:14.864Z,2.75
2022-07-30T11:05:48.309Z,3.75
2022-07-30T11:08:42.503Z,1.83
2022-07-30T11:12:02.017Z,4.07
2022-07-30T11:15:06.287Z,2.22
2022-07-30T11:18:05.090Z,2.38
2022-07-30T11:20:47.689Z,1.38
2022-07-30T11:23:40.642Z,1.75
2022-07-30T11:26:14.421Z,1.48
2022-07-30T11:28:45.710Z,2.70
2022-07-30T11:31:30.800Z,2.22
2022-07-30T11:34:31.218Z,2.35
2022-07-30T11:37:21.895Z,0.82
2022-07-30T11:40:13.756Z,5.20
2022-07-30T11:42:43.239Z,3.90
2022-07-30T11:45:26.883Z,1.45
2022-07-30T11:47:57.656Z,2.67
2022-07-30T11:50:28.196Z,1.80
2022-07-30T11:52:58.169Z,3.25
2022-07-30T11:55:32.828Z,1.77
2022-07-30T11:58:02.878Z,2.17
2022-07-30T12:00:37.434Z,1.65
2022-07-30T12:03:12.982Z,3.63
2022-07-30T12:05:42.035Z,1.88
2022-07-30T12:08:36.131Z,2.53
2022-07-30T12:11:02.202Z,1.05
2022-07-30T12:13:44.248Z,1.70
2022-07-30T12:16:15.950Z,1.48
2022-07-30T12:18:44.647Z,4.03
2022-07-30T12:21:15.687Z,3.97
2022-07-30T12:23:44.600Z,2.53
2022-07-30T12:26:26.516Z,5.50
2022-07-30T12:28:56.075Z,2.15
2022-07-30T12:31:24.519Z,3.30
2022-07-30T12:33:52.758Z,2.47
2022-07-30T12:36:31.304Z,0.95
2022-07-30T12:39:01.413Z,1.73
2022-07-30T12:41:44.524Z,1.27
2022-07-30T12:44:28.052Z,2.10
2022-07-30T12:46:56.316Z,2.38
2022-07-30T12:49:37.624Z,2.85
2022-07-30T12:52:11.857Z,2.45
2022-07-30T12:54:43.143Z,3.78
2022-07-30T12:57:12.815Z,2.17
2022-07-30T12:59:41.011Z,1.75
2022-07-30T13:02:09.252Z,2.78
2022-07-30T13:04:58.916Z,2.47
2022-07-30T13:07:54.545Z,2.10
2022-07-30T13:10:25.040Z,1.35
2022-07-30T13:12:58.501Z,2.38
2022-07-30T13:15:27.416Z,1.00
2022-07-30T13:17:55.635Z,5.63
2022-07-30T13:20:23.998Z,2.65
2022-07-30T13:22:52.355Z,3.08
2022-07-30T13:25:20.542Z,2.30
2022-07-30T13:27:48.909Z,0.50
2022-07-30T13:30:18.592Z,1.95
2022-07-30T13:32:46.784Z,1.33
2022-07-30T13:35:15.194Z,0.32
2022-07-30T13:37:43.464Z,1.80
2022-07-30T13:40:14.571Z,2.55
2022-07-30T13:42:42.886Z,0.60
2022-07-30T13:45:11.775Z,0.80
2022-07-30T13:47:41.341Z,1.50
2022-07-30T13:50:10.166Z,1.63
2022-07-30T13:52:38.513Z,3.55
2022-07-30T13:55:07.421Z,1.15
2022-07-30T13:57:35.793Z,0.47
2022-07-30T14:00:04.840Z,1.17
2022-07-30T14:02:33.412Z,1.55
2022-07-30T14:05:07.065Z,1.25
2022-07-30T14:07:35.479Z,2.08
2022-07-30T14:10:03.999Z,0.90
2022-07-30T14:12:34.914Z,2.10
2022-07-30T14:15:05.685Z,1.83
2022-07-30T14:17:34.003Z,2.22
2022-07-30T14:20:03.797Z,1.95
2022-07-30T14:22:32.072Z,1.52
2022-07-30T14:25:01.227Z,3.40
2022-07-30T14:27:29.476Z,2.05
2022-07-30T14:29:57.682Z,0.30
2022-07-30T14:32:28.734Z,3.90
2022-07-30T14:35:00.809Z,1.85
2022-07-30T14:37:30.540Z,3.85
2022-07-30T14:39:58.927Z,2.95
2022-07-30T14:42:27.209Z,10.90
2022-07-30T14:44:57.075Z,3.53
2022-07-30T14:47:25.558Z,6.97
2022-07-30T14:49:54.547Z,3.22
2022-07-30T14:52:22.704Z,2.60
2022-07-30T14:54:52.417Z,1.70
2022-07-30T14:57:20.665Z,5.30
2022-07-30T14:59:48.976Z,0.50
2022-07-30T15:02:17.250Z,0.98
2022-07-30T15:04:48.575Z,3.63
2022-07-30T15:07:16.857Z,1.27
2022-07-30T15:09:45.311Z,3.83
2022-07-30T15:12:23.573Z,1.55
2022-07-30T15:14:55.601Z,1.35
2022-07-30T15:17:23.837Z,0.80
2022-07-30T15:19:52.209Z,1.77
2022-07-30T15:22:20.908Z,0.50
2022-07-30T15:24:49.728Z,2.80
2022-07-30T15:27:24.743Z,1.63
2022-07-30T15:30:01.393Z,2.85
2022-07-30T15:32:29.573Z,2.03
2022-07-30T15:34:58.725Z,1.00
2022-07-30T15:37:27.197Z,0.85
2022-07-30T15:39:55.436Z,0.90
2022-07-30T15:42:27.251Z,0.40
2022-07-30T15:45:16.042Z,3.00
2022-07-30T15:47:44.943Z,0.98
2022-07-30T15:50:13.419Z,1.05
2022-07-30T15:52:42.822Z,1.55
2022-07-30T15:55:11.554Z,2.92
2022-07-30T15:57:41.581Z,1.17
2022-07-30T16:00:10.584Z,1.67
2022-07-30T16:02:39.550Z,2.13
2022-07-30T16:05:13.478Z,1.17
2022-07-30T16:07:42.531Z,1.25
2022-07-30T16:10:11.638Z,1.45
2022-07-30T16:12:42.081Z,2.65
2022-07-30T16:15:11.346Z,3.47
2022-07-30T16:17:40.132Z,2.67
2022-07-30T16:20:10.141Z,2.25
2022-07-30T16:22:38.421Z,0.90
2022-07-30T16:25:07.420Z,1.58
2022-07-30T16:27:35.751Z,4.28
2022-07-30T16:30:06.140Z,5.07
2022-07-30T16:32:34.416Z,2.15
2022-07-30T16:35:02.645Z,2.90
2022-07-30T16:37:31.108Z,1.38
2022-07-30T16:39:59.367Z,2.65
2022-07-30T16:42:27.666Z,2.15
2022-07-30T16:44:55.883Z,1.10
2022-07-30T16:47:26.543Z,1.75
2022-07-30T16:49:54.811Z,2.25
2022-07-30T16:52:22.961Z,0.52
2022-07-30T16:54:57.269Z,5.10
2022-07-30T16:57:25.469Z,1.50
2022-07-30T16:59:53.978Z,2.85
2022-07-30T17:02:24.098Z,0.68
2022-07-30T17:04:54.793Z,2.08
2022-07-30T17:07:23.310Z,1.40
2022-07-30T17:09:53.496Z,0.50
2022-07-30T17:12:25.448Z,0.93
2022-07-30T17:14:55.458Z,0.40
2022-07-30T17:17:23.797Z,2.88
2022-07-30T17:19:52.248Z,4.45
2022-07-30T17:22:22.236Z,1.75
2022-07-30T17:24:51.653Z,2.15
2022-07-30T17:27:19.902Z,2.17
2022-07-30T17:29:49.975Z,1.17
2022-07-30T17:32:19.987Z,1.63
2022-07-30T17:34:48.633Z,1.33
2022-07-30T17:37:17.168Z,1.63
2022-07-30T17:40:19.895Z,2.45
2022-07-30T17:42:36.846Z,3.35
2022-07-30T17:45:05.745Z,0.63
2022-07-30T17:47:35.419Z,4.03
2022-07-30T17:50:03.905Z,2.50
2022-07-30T17:52:32.192Z,1.15
2022-07-30T17:55:01.995Z,2.47
2022-07-30T17:57:30.252Z,1.45
2022-07-30T17:59:58.473Z,3.75
2022-07-30T18:02:29.516Z,1.88
2022-07-30T18:04:57.785Z,2.67
2022-07-30T18:07:26.101Z,1.85
2022-07-30T18:09:54.305Z,2.78
2022-07-30T18:12:23.976Z,2.22
2022-07-30T18:14:52.549Z,1.70
2022-07-30T18:17:21.135Z,1.77
2022-07-30T18:19:50.370Z,1.33
2022-07-30T18:22:29.424Z,5.00
2022-07-30T18:25:00.484Z,3.78
2022-07-30T18:27:30.917Z,2.97
2022-07-30T18:29:59.324Z,2.92
2022-07-30T18:32:27.550Z,4.18
2022-07-30T18:34:55.817Z,2.20
2022-07-30T18:37:25.061Z,4.63
2022-07-30T18:40:10.810Z,5.60
2022-07-30T18:42:40.478Z,1.50
2022-07-30T18:45:10.452Z,2.65
2022-07-30T18:47:38.671Z,4.57
2022-07-30T18:50:08.034Z,2.15
2022-07-30T18:52:38.792Z,1.73
2022-07-30T18:55:08.273Z,3.55
2022-07-30T18:57:37.507Z,3.47
2022-07-30T19:00:09.825Z,1.85
2022-07-30T19:02:58.054Z,4.55
2022-07-30T19:05:26.383Z,2.10
2022-07-30T19:07:58.331Z,3.30
2022-07-30T19:10:27.406Z,1.50
2022-07-30T19:12:55.842Z,2.20
2022-07-30T19:15:25.611Z,2.75
2022-07-30T19:17:53.959Z,2.58
2022-07-30T19:20:23.433Z,2.42
2022-07-30T19:22:53.322Z,3.10
2022-07-30T19:25:21.853Z,6.97
2022-07-30T19:27:50.038Z,3.22
2022-07-30T19:33:04.376Z,4.65
2022-07-30T19:35:32.679Z,3.08
2022-07-30T19:38:00.890Z,4.97
2022-07-30T19:40:35.187Z,3.67
2022-07-30T19:43:10.261Z,2.00
2022-07-30T19:45:58.434Z,5.63
2022-07-30T19:48:31.601Z,2.05
2022-07-30T19:51:04.475Z,2.00
2022-07-30T19:53:34.067Z,3.97
2022-07-30T19:56:06.981Z,3.38
2022-07-30T19:58:41.987Z,4.53
2022-07-30T20:01:12.310Z,3.83
2022-07-30T20:03:45.410Z,4.60
2022-07-30T20:06:16.200Z,2.75
2022-07-30T20:08:45.255Z,2.08
2022-07-30T20:11:21.298Z,2.35
2022-07-30T20:14:02.852Z,5.38
2022-07-30T20:16:31.130Z,5.18
2022-07-30T20:19:03.350Z,2.22
2022-07-30T20:21:56.029Z,3.63
2022-07-30T20:24:21.957Z,3.10
2022-07-30T20:26:50.414Z,2.92
2022-07-30T20:29:18.911Z,1.83
2022-07-30T20:31:49.702Z,5.78
2022-07-30T20:34:23.325Z,3.85
2022-07-30T20:36:52.974Z,6.05
2022-07-30T20:39:22.182Z,2.15
2022-07-30T20:42:07.510Z,2.28
2022-07-30T20:44:36.871Z,5.97
2022-07-30T20:47:08.189Z,2.97
2022-07-30T20:49:38.808Z,2.28
2022-07-30T20:52:09.668Z,2.17
2022-07-30T20:54:42.328Z,4.22
2022-07-30T20:57:15.504Z,2.33
2022-07-30T20:59:44.266Z,5.32
2022-07-30T21:02:15.349Z,3.40
2022-07-30T21:04:46.327Z,4.03
2022-07-30T21:07:14.900Z,2.33
2022-07-30T21:09:52.763Z,6.78
2022-07-30T21:12:32.775Z,7.60
2022-07-30T21:15:05.515Z,7.05
2022-07-30T21:17:51.558Z,2.70
2022-07-30T21:20:27.930Z,3.72
2022-07-30T21:22:56.630Z,1.90
2022-07-30T21:25:32.532Z,3.33
2022-07-30T21:28:02.766Z,5.20
2022-07-30T21:30:32.704Z,4.57
2022-07-30T21:35:54.854Z,1.48
2022-07-30T21:38:26.661Z,2.03
2022-07-30T21:40:54.995Z,7.53
2022-07-30T21:43:30.092Z,3.25
2022-07-30T21:46:03.710Z,5.18
2022-07-30T21:48:35.755Z,2.13
2022-07-30T21:51:05.453Z,3.22
2022-07-30T21:53:53.661Z,6.53
2022-07-30T21:56:21.971Z,4.38
2022-07-30T21:58:50.211Z,4.63
2022-07-30T22:01:22.561Z,3.70
2022-07-30T22:04:01.516Z,2.25
2022-07-30T22:06:39.934Z,4.97
2022-07-30T22:09:19.170Z,1.95
2022-07-30T22:12:00.637Z,7.88
2022-07-30T22:14:30.061Z,3.63
2022-07-30T22:17:00.547Z,2.50
2022-07-30T22:19:32.806Z,5.95
2022-07-30T22:22:05.276Z,4.53
2022-07-30T22:24:50.606Z,4.55
2022-07-30T22:27:18.979Z,4.68
2022-07-30T22:29:55.600Z,6.72
2022-07-30T22:32:24.346Z,5.82
2022-07-30T22:34:53.024Z,5.72
2022-07-30T22:37:24.887Z,6.30
2022-07-30T22:40:01.730Z,4.55
2022-07-30T22:42:30.083Z,3.85
2022-07-30T22:44:59.764Z,3.40
2022-07-30T22:47:51.086Z,5.88
2022-07-30T22:50:18.209Z,7.00
2022-07-30T22:54:03.588Z,5.25
2022-07-30T22:55:51.503Z,4.30
2022-07-30T22:58:26.387Z,6.55
2022-07-30T23:00:55.044Z,5.18
2022-07-30T23:03:23.277Z,3.90
2022-07-30T23:05:55.079Z,2.85
2022-07-30T23:08:29.400Z,5.00
2022-07-30T23:10:58.004Z,2.85
2022-07-30T23:13:26.323Z,4.80
2022-07-30T23:15:54.596Z,3.80
2022-07-30T23:18:22.782Z,3.50
2022-07-30T23:20:51.017Z,2.33
2022-07-30T23:23:22.889Z,1.30
2022-07-30T23:25:52.516Z,2.20
2022-07-30T23:28:20.663Z,1.42
2022-07-30T23:30:49.060Z,3.58
2022-07-30T23:35:53.487Z,2.22
2022-07-30T23:38:43.716Z,2.53
2022-07-30T23:41:30.020Z,1.30
2022-07-30T23:43:59.205Z,1.70
2022-07-30T23:46:27.451Z,2.60
2022-07-30T23:48:56.766Z,1.95
2022-07-30T23:51:25.596Z,1.67
2022-07-30T23:54:01.968Z,1.95
2022-07-30T23:56:32.347Z,1.95
2022-07-30T23:59:00.574Z,1.60
